sensor_id;sensor_type;location;lat;lon;timestamp;P1;durP1;ratioP1;P2;durP2;ratioP2
2884;SDS011;54691;48.262;11.586;2022-11-02T00:05:36;6.37;;;3.08;;
2884;SDS011;54691;48.262;11.586;2022-11-02T00:12:36;5.87;;;2.30;;
2884;SDS011;54691;48.262;11.586;2022-11-02T00:19:33;8.15;;;2.80;;
2884;SDS011;54691;48.262;11.586;2022-11-02T00:26:31;7.05;;;3.52;;
2884;SDS011;54691;48.262;11.586;2022-11-02T00:33:29;6.40;;;2.65;;
2884;SDS011;54691;48.262;11.586;2022-11-02T00:40:26;6.67;;;2.52;;
2884;SDS011;54691;48.262;11.586;2022-11-02T00:47:23;6.37;;;2.47;;
2884;SDS011;54691;48.262;11.586;2022-11-02T00:54:20;14.68;;;4.67;;
2884;SDS011;54691;48.262;11.586;2022-11-02T01:01:17;8.38;;;2.72;;
2884;SDS011;54691;48.262;11.586;2022-11-02T01:08:16;10.82;;;3.47;;
2884;SDS011;54691;48.262;11.586;2022-11-02T01:15:13;6.17;;;2.62;;
2884;SDS011;54691;48.262;11.586;2022-11-02T01:22:10;18.17;;;3.52;;
2884;SDS011;54691;48.262;11.586;2022-11-02T01:29:07;6.67;;;3.15;;
2884;SDS011;54691;48.262;11.586;2022-11-02T01:36:05;6.75;;;2.27;;
2884;SDS011;54691;48.262;11.586;2022-11-02T01:46:50;5.03;;;2.25;;
2884;SDS011;54691;48.262;11.586;2022-11-02T01:53:49;14.05;;;3.08;;
2884;SDS011;54691;48.262;11.586;2022-11-02T02:00:47;7.28;;;2.37;;
2884;SDS011;54691;48.262;11.586;2022-11-02T02:07:44;5.92;;;2.83;;
2884;SDS011;54691;48.262;11.586;2022-11-02T02:14:42;8.68;;;3.58;;
2884;SDS011;54691;48.262;11.586;2022-11-02T02:21:56;7.15;;;2.65;;
2884;SDS011;54691;48.262;11.586;2022-11-02T02:29:50;9.20;;;3.42;;
2884;SDS011;54691;48.262;11.586;2022-11-02T02:46:45;11.40;;;2.35;;
2884;SDS011;54691;48.262;11.586;2022-11-02T02:53:39;7.58;;;3.05;;
2884;SDS011;54691;48.262;11.586;2022-11-02T03:00:36;5.58;;;2.17;;
2884;SDS011;54691;48.262;11.586;2022-11-02T03:07:33;8.48;;;2.72;;
2884;SDS011;54691;48.262;11.586;2022-11-02T03:14:38;9.83;;;2.45;;
2884;SDS011;54691;48.262;11.586;2022-11-02T03:39:07;10.70;;;3.37;;
2884;SDS011;54691;48.262;11.586;2022-11-02T03:46:04;9.25;;;2.72;;
2884;SDS011;54691;48.262;11.586;2022-11-02T03:53:10;10.68;;;2.85;;
2884;SDS011;54691;48.262;11.586;2022-11-02T04:00:06;7.45;;;2.80;;
2884;SDS011;54691;48.262;11.586;2022-11-02T04:07:03;7.97;;;3.42;;
2884;SDS011;54691;48.262;11.586;2022-11-02T04:14:00;12.50;;;4.25;;
2884;SDS011;54691;48.262;11.586;2022-11-02T04:17:46;7.47;;;3.60;;
2884;SDS011;54691;48.262;11.586;2022-11-02T04:21:33;11.53;;;3.70;;
2884;SDS011;54691;48.262;11.586;2022-11-02T04:35:39;6.72;;;3.02;;
2884;SDS011;54691;48.262;11.586;2022-11-02T04:42:36;11.65;;;3.42;;
2884;SDS011;54691;48.262;11.586;2022-11-02T04:49:38;12.28;;;4.37;;
2884;SDS011;54691;48.262;11.586;2022-11-02T04:56:35;9.80;;;3.60;;
2884;SDS011;54691;48.262;11.586;2022-11-02T05:03:34;9.05;;;3.25;;
2884;SDS011;54691;48.262;11.586;2022-11-02T05:10:32;11.85;;;4.08;;
2884;SDS011;54691;48.262;11.586;2022-11-02T05:17:30;18.27;;;3.33;;
2884;SDS011;54691;48.262;11.586;2022-11-02T05:24:27;6.85;;;3.08;;
2884;SDS011;54691;48.262;11.586;2022-11-02T05:31:24;12.90;;;3.55;;
2884;SDS011;54691;48.262;11.586;2022-11-02T05:38:26;9.55;;;3.12;;
2884;SDS011;54691;48.262;11.586;2022-11-02T05:42:04;9.40;;;3.20;;
2884;SDS011;54691;48.262;11.586;2022-11-02T05:49:05;12.75;;;3.05;;
2884;SDS011;54691;48.262;11.586;2022-11-02T05:56:08;10.23;;;3.22;;
2884;SDS011;54691;48.262;11.586;2022-11-02T06:03:04;8.58;;;2.85;;
2884;SDS011;54691;48.262;11.586;2022-11-02T06:10:01;11.53;;;4.72;;
2884;SDS011;54691;48.262;11.586;2022-11-02T06:16:58;9.95;;;3.95;;
2884;SDS011;54691;48.262;11.586;2022-11-02T06:23:55;16.57;;;4.65;;
2884;SDS011;54691;48.262;11.586;2022-11-02T06:30:53;11.97;;;3.98;;
2884;SDS011;54691;48.262;11.586;2022-11-02T06:37:50;14.93;;;3.92;;
2884;SDS011;54691;48.262;11.586;2022-11-02T06:44:47;13.60;;;4.42;;
2884;SDS011;54691;48.262;11.586;2022-11-02T06:51:44;13.00;;;4.42;;
2884;SDS011;54691;48.262;11.586;2022-11-02T06:58:41;15.58;;;4.10;;
2884;SDS011;54691;48.262;11.586;2022-11-02T07:05:38;13.32;;;4.17;;
2884;SDS011;54691;48.262;11.586;2022-11-02T07:12:35;16.90;;;3.95;;
2884;SDS011;54691;48.262;11.586;2022-11-02T07:19:32;19.92;;;5.45;;
2884;SDS011;54691;48.262;11.586;2022-11-02T07:26:30;10.08;;;4.37;;
2884;SDS011;54691;48.262;11.586;2022-11-02T07:33:27;17.87;;;5.62;;
2884;SDS011;54691;48.262;11.586;2022-11-02T07:40:24;10.20;;;3.27;;
2884;SDS011;54691;48.262;11.586;2022-11-02T07:47:22;13.43;;;3.75;;
2884;SDS011;54691;48.262;11.586;2022-11-02T07:54:19;15.00;;;3.65;;
2884;SDS011;54691;48.262;11.586;2022-11-02T08:01:16;8.33;;;3.30;;
2884;SDS011;54691;48.262;11.586;2022-11-02T08:08:19;8.15;;;3.98;;
2884;SDS011;54691;48.262;11.586;2022-11-02T08:11:49;8.30;;;2.20;;
2884;SDS011;54691;48.262;11.586;2022-11-02T08:18:46;8.60;;;2.47;;
2884;SDS011;54691;48.262;11.586;2022-11-02T08:25:43;8.45;;;2.47;;
2884;SDS011;54691;48.262;11.586;2022-11-02T08:32:40;7.22;;;2.20;;
2884;SDS011;54691;48.262;11.586;2022-11-02T08:39:37;12.18;;;2.37;;
2884;SDS011;54691;48.262;11.586;2022-11-02T08:46:34;10.55;;;1.75;;
2884;SDS011;54691;48.262;11.586;2022-11-02T08:53:31;8.00;;;1.98;;
2884;SDS011;54691;48.262;11.586;2022-11-02T09:00:30;3.77;;;0.88;;
2884;SDS011;54691;48.262;11.586;2022-11-02T09:07:27;9.93;;;1.20;;
2884;SDS011;54691;48.262;11.586;2022-11-02T09:14:24;6.35;;;1.45;;
2884;SDS011;54691;48.262;11.586;2022-11-02T09:21:21;8.93;;;1.55;;
2884;SDS011;54691;48.262;11.586;2022-11-02T09:28:18;6.95;;;1.07;;
2884;SDS011;54691;48.262;11.586;2022-11-02T09:35:15;9.65;;;1.20;;
2884;SDS011;54691;48.262;11.586;2022-11-02T09:42:15;5.97;;;1.10;;
2884;SDS011;54691;48.262;11.586;2022-11-02T09:49:21;5.20;;;1.17;;
2884;SDS011;54691;48.262;11.586;2022-11-02T09:52:58;4.50;;;0.87;;
2884;SDS011;54691;48.262;11.586;2022-11-02T09:56:29;9.10;;;1.05;;
2884;SDS011;54691;48.262;11.586;2022-11-02T10:03:46;5.33;;;0.60;;
2884;SDS011;54691;48.262;11.586;2022-11-02T10:14:20;2.35;;;0.95;;
2884;SDS011;54691;48.262;11.586;2022-11-02T10:21:20;7.72;;;2.10;;
2884;SDS011;54691;48.262;11.586;2022-11-02T10:28:14;4.83;;;0.90;;
2884;SDS011;54691;48.262;11.586;2022-11-02T10:35:17;14.45;;;0.82;;
2884;SDS011;54691;48.262;11.586;2022-11-02T10:46:04;4.70;;;1.15;;
2884;SDS011;54691;48.262;11.586;2022-11-02T10:53:00;5.87;;;1.42;;
2884;SDS011;54691;48.262;11.586;2022-11-02T11:03:57;1.45;;;0.47;;
2884;SDS011;54691;48.262;11.586;2022-11-02T11:07:27;4.90;;;1.92;;
2884;SDS011;54691;48.262;11.586;2022-11-02T11:14:25;5.15;;;0.90;;
2884;SDS011;54691;48.262;11.586;2022-11-02T11:21:38;6.62;;;1.30;;
2884;SDS011;54691;48.262;11.586;2022-11-02T11:28:54;14.65;;;1.10;;
2884;SDS011;54691;48.262;11.586;2022-11-02T11:32:24;5.40;;;1.25;;
2884;SDS011;54691;48.262;11.586;2022-11-02T11:39:26;5.37;;;0.82;;
2884;SDS011;54691;48.262;11.586;2022-11-02T11:46:23;6.83;;;1.00;;
2884;SDS011;54691;48.262;11.586;2022-11-02T11:53:22;6.72;;;1.05;;
2884;SDS011;54691;48.262;11.586;2022-11-02T12:00:26;6.08;;;0.93;;
2884;SDS011;54691;48.262;11.586;2022-11-02T12:11:16;10.68;;;2.35;;
2884;SDS011;54691;48.262;11.586;2022-11-02T12:18:43;8.50;;;1.10;;
2884;SDS011;54691;48.262;11.586;2022-11-02T12:25:51;2.35;;;0.50;;
2884;SDS011;54691;48.262;11.586;2022-11-02T12:54:51;3.40;;;0.40;;
2884;SDS011;54691;48.262;11.586;2022-11-02T13:01:36;3.02;;;0.65;;
2884;SDS011;54691;48.262;11.586;2022-11-02T13:05:13;3.75;;;0.68;;
2884;SDS011;54691;48.262;11.586;2022-11-02T13:15:41;2.87;;;0.70;;
2884;SDS011;54691;48.262;11.586;2022-11-02T13:22:41;1.32;;;0.50;;
2884;SDS011;54691;48.262;11.586;2022-11-02T13:29:40;3.02;;;0.53;;
2884;SDS011;54691;48.262;11.586;2022-11-02T13:36:39;3.02;;;0.40;;
2884;SDS011;54691;48.262;11.586;2022-11-02T13:50:38;7.90;;;0.60;;
2884;SDS011;54691;48.262;11.586;2022-11-02T14:04:37;3.65;;;0.80;;
2884;SDS011;54691;48.262;11.586;2022-11-02T14:11:35;1.75;;;1.10;;
2884;SDS011;54691;48.262;11.586;2022-11-02T14:18:33;3.60;;;0.47;;
2884;SDS011;54691;48.262;11.586;2022-11-02T14:25:41;3.05;;;0.70;;
2884;SDS011;54691;48.262;11.586;2022-11-02T14:32:54;3.10;;;0.50;;
2884;SDS011;54691;48.262;11.586;2022-11-02T14:43:29;4.65;;;0.60;;
2884;SDS011;54691;48.262;11.586;2022-11-02T14:53:56;2.95;;;0.42;;
2884;SDS011;54691;48.262;11.586;2022-11-02T15:00:54;2.67;;;1.27;;
2884;SDS011;54691;48.262;11.586;2022-11-02T15:07:56;1.85;;;0.88;;
2884;SDS011;54691;48.262;11.586;2022-11-02T15:14:55;7.50;;;1.80;;
2884;SDS011;54691;48.262;11.586;2022-11-02T15:21:53;4.08;;;1.30;;
2884;SDS011;54691;48.262;11.586;2022-11-02T15:28:52;4.17;;;0.62;;
2884;SDS011;54691;48.262;11.586;2022-11-02T15:35:50;5.47;;;0.90;;
2884;SDS011;54691;48.262;11.586;2022-11-02T15:42:57;4.70;;;1.05;;
2884;SDS011;54691;48.262;11.586;2022-11-02T16:00:25;2.35;;;0.70;;
2884;SDS011;54691;48.262;11.586;2022-11-02T16:07:25;8.75;;;2.02;;
2884;SDS011;54691;48.262;11.586;2022-11-02T16:14:23;5.55;;;1.40;;
2884;SDS011;54691;48.262;11.586;2022-11-02T16:21:21;9.10;;;2.62;;
2884;SDS011;54691;48.262;11.586;2022-11-02T16:35:16;15.90;;;2.47;;
2884;SDS011;54691;48.262;11.586;2022-11-02T16:42:17;19.48;;;3.37;;
2884;SDS011;54691;48.262;11.586;2022-11-02T16:49:18;4.78;;;1.37;;
2884;SDS011;54691;48.262;11.586;2022-11-02T17:07:11;8.85;;;3.40;;
2884;SDS011;54691;48.262;11.586;2022-11-02T17:10:40;15.28;;;4.97;;
2884;SDS011;54691;48.262;11.586;2022-11-02T17:17:39;6.20;;;2.85;;
2884;SDS011;54691;48.262;11.586;2022-11-02T17:24:36;24.02;;;4.22;;
2884;SDS011;54691;48.262;11.586;2022-11-02T17:31:36;15.08;;;5.20;;
2884;SDS011;54691;48.262;11.586;2022-11-02T17:38:35;16.02;;;3.58;;
2884;SDS011;54691;48.262;11.586;2022-11-02T17:45:53;9.43;;;3.53;;
2884;SDS011;54691;48.262;11.586;2022-11-02T17:52:51;10.98;;;1.67;;
2884;SDS011;54691;48.262;11.586;2022-11-02T17:59:48;7.55;;;2.27;;
2884;SDS011;54691;48.262;11.586;2022-11-02T18:06:47;34.58;;;2.35;;
2884;SDS011;54691;48.262;11.586;2022-11-02T18:13:48;11.48;;;4.00;;
2884;SDS011;54691;48.262;11.586;2022-11-02T18:20:45;15.25;;;3.75;;
2884;SDS011;54691;48.262;11.586;2022-11-02T18:27:42;10.28;;;2.60;;
2884;SDS011;54691;48.262;11.586;2022-11-02T18:34:39;17.57;;;6.00;;
2884;SDS011;54691;48.262;11.586;2022-11-02T18:41:37;14.65;;;4.72;;
2884;SDS011;54691;48.262;11.586;2022-11-02T18:48:35;11.50;;;3.00;;
2884;SDS011;54691;48.262;11.586;2022-11-02T18:55:32;9.03;;;2.10;;
2884;SDS011;54691;48.262;11.586;2022-11-02T19:02:29;14.07;;;3.35;;
2884;SDS011;54691;48.262;11.586;2022-11-02T19:09:44;6.07;;;2.33;;
2884;SDS011;54691;48.262;11.586;2022-11-02T19:16:42;16.67;;;2.58;;
2884;SDS011;54691;48.262;11.586;2022-11-02T19:23:39;10.48;;;3.15;;
2884;SDS011;54691;48.262;11.586;2022-11-02T19:30:38;7.83;;;2.10;;
2884;SDS011;54691;48.262;11.586;2022-11-02T19:37:35;9.73;;;3.00;;
2884;SDS011;54691;48.262;11.586;2022-11-02T19:48:08;8.80;;;1.72;;
2884;SDS011;54691;48.262;11.586;2022-11-02T19:55:05;8.55;;;2.45;;
2884;SDS011;54691;48.262;11.586;2022-11-02T20:02:02;18.95;;;5.33;;
2884;SDS011;54691;48.262;11.586;2022-11-02T20:09:00;9.83;;;3.90;;
2884;SDS011;54691;48.262;11.586;2022-11-02T20:16:01;7.78;;;3.33;;
2884;SDS011;54691;48.262;11.586;2022-11-02T20:23:00;18.15;;;4.20;;
2884;SDS011;54691;48.262;11.586;2022-11-02T20:29:58;9.60;;;3.58;;
2884;SDS011;54691;48.262;11.586;2022-11-02T20:36:58;9.45;;;2.90;;
2884;SDS011;54691;48.262;11.586;2022-11-02T21:03:12;14.65;;;3.22;;
2884;SDS011;54691;48.262;11.586;2022-11-02T21:11:19;8.93;;;3.23;;
2884;SDS011;54691;48.262;11.586;2022-11-02T21:15:13;6.15;;;2.55;;
2884;SDS011;54691;48.262;11.586;2022-11-02T21:22:28;7.78;;;2.98;;
2884;SDS011;54691;48.262;11.586;2022-11-02T21:29:30;11.50;;;2.35;;
2884;SDS011;54691;48.262;11.586;2022-11-02T21:33:14;11.70;;;2.90;;
2884;SDS011;54691;48.262;11.586;2022-11-02T21:36:49;14.73;;;2.52;;
2884;SDS011;54691;48.262;11.586;2022-11-02T21:51:07;17.30;;;3.70;;
2884;SDS011;54691;48.262;11.586;2022-11-02T21:54:38;8.18;;;2.62;;
2884;SDS011;54691;48.262;11.586;2022-11-02T22:01:35;6.78;;;2.75;;
2884;SDS011;54691;48.262;11.586;2022-11-02T22:05:19;6.28;;;2.55;;
2884;SDS011;54691;48.262;11.586;2022-11-02T22:09:00;9.10;;;2.60;;
2884;SDS011;54691;48.262;11.586;2022-11-02T22:16:22;5.57;;;2.17;;
2884;SDS011;54691;48.262;11.586;2022-11-02T22:23:15;5.03;;;2.47;;
2884;SDS011;54691;48.262;11.586;2022-11-02T22:30:12;13.00;;;3.42;;
2884;SDS011;54691;48.262;11.586;2022-11-02T22:37:09;4.83;;;2.05;;
2884;SDS011;54691;48.262;11.586;2022-11-02T22:40:59;8.57;;;2.23;;
2884;SDS011;54691;48.262;11.586;2022-11-02T22:47:56;23.00;;;5.53;;
2884;SDS011;54691;48.262;11.586;2022-11-02T22:54:53;5.70;;;2.98;;
2884;SDS011;54691;48.262;11.586;2022-11-02T23:01:50;6.92;;;2.20;;
2884;SDS011;54691;48.262;11.586;2022-11-02T23:08:48;7.05;;;3.20;;
2884;SDS011;54691;48.262;11.586;2022-11-02T23:15:45;5.87;;;2.77;;
2884;SDS011;54691;48.262;11.586;2022-11-02T23:22:58;9.70;;;2.15;;
2884;SDS011;54691;48.262;11.586;2022-11-02T23:26:44;9.58;;;2.30;;
2884;SDS011;54691;48.262;11.586;2022-11-02T23:33:59;6.03;;;2.80;;
2884;SDS011;54691;48.262;11.586;2022-11-02T23:40:56;5.92;;;2.58;;
2884;SDS011;54691;48.262;11.586;2022-11-02T23:47:55;6.87;;;2.08;;
2884;SDS011;54691;48.262;11.586;2022-11-02T23:55:11;12.67;;;3.20;;
2884;SDS011;54691;48.262;11.586;2022-11-02T23:58:57;9.98;;;2.50;;
